Kampala, Uganda
Current Conditions -  °F | °C
As of 9:32 AM on Wednesday 22 Oct 2014 (Local Time) from KQUD Reporting Station
Moderate Rain Moderate Rain  
Wind Chill: 68°   Ceiling: Unl
Heat Index: 68°   Visibility: 4mi
Dew Point: 66°   Wind: 1mph
Humidity: 94%   Direction: 350°N
Pressure: 30.27"   Gusts: NA
Location:  0.32°N, 32.58°E
Report Text: KQUD 220632Z AUTO 35001KT 4SM RA FEW021 SCT038 20/19 A3027 RMK AO2 SLP210
Loading
Personal Weather Stations






























Interactive Weather Map
Tropical Storm Tracking
New forecast layout! Learn more

10-Day Weather Forecast

Advertisements
Track Severe Weather on mobile